sensor_id;sensor_type;location;lat;lon;timestamp;P1;durP1;ratioP1;P2;durP2;ratioP2
8411;SDS011;4243;49.296;11.348;2022-08-19T00:00:07;120.97;;;2.90;;
8411;SDS011;4243;49.296;11.348;2022-08-19T00:02:36;120.83;;;2.80;;
8411;SDS011;4243;49.296;11.348;2022-08-19T00:05:15;121.63;;;2.90;;
8411;SDS011;4243;49.296;11.348;2022-08-19T00:07:45;120.30;;;2.87;;
8411;SDS011;4243;49.296;11.348;2022-08-19T00:10:14;121.30;;;3.00;;
8411;SDS011;4243;49.296;11.348;2022-08-19T00:12:45;120.80;;;3.10;;
8411;SDS011;4243;49.296;11.348;2022-08-19T00:15:14;121.37;;;3.13;;
8411;SDS011;4243;49.296;11.348;2022-08-19T00:17:44;121.50;;;3.20;;
8411;SDS011;4243;49.296;11.348;2022-08-19T00:20:13;120.80;;;3.30;;
8411;SDS011;4243;49.296;11.348;2022-08-19T00:22:44;121.20;;;3.23;;
8411;SDS011;4243;49.296;11.348;2022-08-19T00:25:14;121.57;;;3.53;;
8411;SDS011;4243;49.296;11.348;2022-08-19T00:27:43;121.00;;;3.40;;
8411;SDS011;4243;49.296;11.348;2022-08-19T00:30:10;121.50;;;3.83;;
8411;SDS011;4243;49.296;11.348;2022-08-19T00:32:38;121.10;;;3.33;;
8411;SDS011;4243;49.296;11.348;2022-08-19T00:35:06;121.20;;;3.40;;
8411;SDS011;4243;49.296;11.348;2022-08-19T00:37:35;121.50;;;3.27;;
8411;SDS011;4243;49.296;11.348;2022-08-19T00:40:04;121.17;;;3.47;;
8411;SDS011;4243;49.296;11.348;2022-08-19T00:42:33;121.80;;;3.60;;
8411;SDS011;4243;49.296;11.348;2022-08-19T00:45:00;121.77;;;3.50;;
8411;SDS011;4243;49.296;11.348;2022-08-19T00:47:29;121.80;;;3.23;;
8411;SDS011;4243;49.296;11.348;2022-08-19T00:49:56;120.17;;;3.17;;
8411;SDS011;4243;49.296;11.348;2022-08-19T00:52:27;121.13;;;3.30;;
8411;SDS011;4243;49.296;11.348;2022-08-19T00:54:59;121.07;;;3.50;;
8411;SDS011;4243;49.296;11.348;2022-08-19T00:57:32;121.30;;;3.20;;
8411;SDS011;4243;49.296;11.348;2022-08-19T01:00:21;121.00;;;3.20;;
8411;SDS011;4243;49.296;11.348;2022-08-19T01:02:51;121.20;;;3.03;;
8411;SDS011;4243;49.296;11.348;2022-08-19T01:05:21;121.37;;;3.03;;
8411;SDS011;4243;49.296;11.348;2022-08-19T01:07:55;121.17;;;2.90;;
8411;SDS011;4243;49.296;11.348;2022-08-19T01:10:27;121.33;;;2.87;;
8411;SDS011;4243;49.296;11.348;2022-08-19T01:13:03;121.10;;;3.00;;
8411;SDS011;4243;49.296;11.348;2022-08-19T01:15:32;121.00;;;3.00;;
8411;SDS011;4243;49.296;11.348;2022-08-19T01:18:08;121.40;;;3.10;;
8411;SDS011;4243;49.296;11.348;2022-08-19T01:20:39;121.17;;;2.80;;
8411;SDS011;4243;49.296;11.348;2022-08-19T01:23:08;121.10;;;2.90;;
8411;SDS011;4243;49.296;11.348;2022-08-19T01:25:47;120.97;;;2.90;;
8411;SDS011;4243;49.296;11.348;2022-08-19T01:28:23;120.90;;;2.73;;
8411;SDS011;4243;49.296;11.348;2022-08-19T01:31:05;121.60;;;2.80;;
8411;SDS011;4243;49.296;11.348;2022-08-19T01:33:54;121.27;;;2.93;;
8411;SDS011;4243;49.296;11.348;2022-08-19T01:39:00;121.57;;;2.73;;
8411;SDS011;4243;49.296;11.348;2022-08-19T01:41:33;121.00;;;2.63;;
8411;SDS011;4243;49.296;11.348;2022-08-19T01:44:01;121.40;;;2.80;;
8411;SDS011;4243;49.296;11.348;2022-08-19T01:46:44;120.97;;;2.90;;
8411;SDS011;4243;49.296;11.348;2022-08-19T01:49:14;120.50;;;2.90;;
8411;SDS011;4243;49.296;11.348;2022-08-19T01:51:46;120.80;;;2.73;;
8411;SDS011;4243;49.296;11.348;2022-08-19T01:54:16;119.97;;;2.70;;
8411;SDS011;4243;49.296;11.348;2022-08-19T01:56:54;120.97;;;2.80;;
8411;SDS011;4243;49.296;11.348;2022-08-19T01:59:29;121.27;;;2.77;;
8411;SDS011;4243;49.296;11.348;2022-08-19T02:01:58;121.30;;;2.63;;
8411;SDS011;4243;49.296;11.348;2022-08-19T02:04:25;121.07;;;2.70;;
8411;SDS011;4243;49.296;11.348;2022-08-19T02:06:53;121.07;;;2.77;;
8411;SDS011;4243;49.296;11.348;2022-08-19T02:09:20;120.53;;;2.70;;
8411;SDS011;4243;49.296;11.348;2022-08-19T02:11:48;120.20;;;2.70;;
8411;SDS011;4243;49.296;11.348;2022-08-19T02:14:15;121.23;;;2.70;;
8411;SDS011;4243;49.296;11.348;2022-08-19T02:16:43;120.57;;;2.67;;
8411;SDS011;4243;49.296;11.348;2022-08-19T02:19:10;120.53;;;2.60;;
8411;SDS011;4243;49.296;11.348;2022-08-19T02:21:38;121.00;;;2.67;;
8411;SDS011;4243;49.296;11.348;2022-08-19T02:24:06;120.90;;;2.67;;
8411;SDS011;4243;49.296;11.348;2022-08-19T02:26:33;119.40;;;2.77;;
8411;SDS011;4243;49.296;11.348;2022-08-19T02:29:01;120.90;;;2.70;;
8411;SDS011;4243;49.296;11.348;2022-08-19T02:31:28;120.97;;;2.70;;
8411;SDS011;4243;49.296;11.348;2022-08-19T02:33:56;120.57;;;3.00;;
8411;SDS011;4243;49.296;11.348;2022-08-19T02:36:24;121.27;;;3.00;;
8411;SDS011;4243;49.296;11.348;2022-08-19T02:38:52;120.60;;;2.90;;
8411;SDS011;4243;49.296;11.348;2022-08-19T02:41:22;120.90;;;3.07;;
8411;SDS011;4243;49.296;11.348;2022-08-19T02:43:58;120.93;;;2.97;;
8411;SDS011;4243;49.296;11.348;2022-08-19T02:46:48;120.90;;;3.10;;
8411;SDS011;4243;49.296;11.348;2022-08-19T02:49:17;121.03;;;3.30;;
8411;SDS011;4243;49.296;11.348;2022-08-19T02:51:45;120.97;;;3.13;;
8411;SDS011;4243;49.296;11.348;2022-08-19T02:54:13;120.30;;;3.03;;
8411;SDS011;4243;49.296;11.348;2022-08-19T02:56:42;121.17;;;2.93;;
8411;SDS011;4243;49.296;11.348;2022-08-19T02:59:11;120.90;;;3.27;;
8411;SDS011;4243;49.296;11.348;2022-08-19T03:01:39;121.07;;;3.33;;
8411;SDS011;4243;49.296;11.348;2022-08-19T03:04:09;120.30;;;3.27;;
8411;SDS011;4243;49.296;11.348;2022-08-19T03:06:39;121.17;;;3.30;;
8411;SDS011;4243;49.296;11.348;2022-08-19T03:09:10;120.60;;;3.57;;
8411;SDS011;4243;49.296;11.348;2022-08-19T03:11:38;120.97;;;3.57;;
8411;SDS011;4243;49.296;11.348;2022-08-19T03:14:07;120.87;;;3.37;;
8411;SDS011;4243;49.296;11.348;2022-08-19T03:16:46;120.27;;;3.40;;
8411;SDS011;4243;49.296;11.348;2022-08-19T03:19:17;121.37;;;3.67;;
8411;SDS011;4243;49.296;11.348;2022-08-19T03:21:47;120.57;;;3.60;;
8411;SDS011;4243;49.296;11.348;2022-08-19T03:24:15;121.57;;;3.60;;
8411;SDS011;4243;49.296;11.348;2022-08-19T03:26:47;120.70;;;3.17;;
8411;SDS011;4243;49.296;11.348;2022-08-19T03:29:19;120.77;;;3.30;;
8411;SDS011;4243;49.296;11.348;2022-08-19T03:31:56;121.00;;;3.27;;
8411;SDS011;4243;49.296;11.348;2022-08-19T03:34:30;121.17;;;3.27;;
8411;SDS011;4243;49.296;11.348;2022-08-19T03:37:03;120.83;;;3.30;;
8411;SDS011;4243;49.296;11.348;2022-08-19T03:39:38;120.50;;;3.20;;
8411;SDS011;4243;49.296;11.348;2022-08-19T03:42:10;120.30;;;3.33;;
8411;SDS011;4243;49.296;11.348;2022-08-19T03:44:58;120.53;;;3.03;;
8411;SDS011;4243;49.296;11.348;2022-08-19T03:47:25;120.13;;;2.93;;
8411;SDS011;4243;49.296;11.348;2022-08-19T03:49:53;120.40;;;3.13;;
8411;SDS011;4243;49.296;11.348;2022-08-19T03:52:20;120.67;;;3.20;;
8411;SDS011;4243;49.296;11.348;2022-08-19T03:54:48;119.97;;;3.17;;
8411;SDS011;4243;49.296;11.348;2022-08-19T03:57:15;121.00;;;3.13;;
8411;SDS011;4243;49.296;11.348;2022-08-19T03:59:43;120.40;;;3.23;;
8411;SDS011;4243;49.296;11.348;2022-08-19T04:02:11;120.50;;;3.07;;
8411;SDS011;4243;49.296;11.348;2022-08-19T04:04:40;119.87;;;2.90;;
8411;SDS011;4243;49.296;11.348;2022-08-19T04:07:09;120.47;;;3.57;;
8411;SDS011;4243;49.296;11.348;2022-08-19T04:09:42;120.80;;;3.50;;
8411;SDS011;4243;49.296;11.348;2022-08-19T04:12:10;120.40;;;3.40;;
8411;SDS011;4243;49.296;11.348;2022-08-19T04:14:37;120.33;;;3.60;;
8411;SDS011;4243;49.296;11.348;2022-08-19T04:17:05;120.47;;;3.47;;
8411;SDS011;4243;49.296;11.348;2022-08-19T04:19:34;120.60;;;3.40;;
8411;SDS011;4243;49.296;11.348;2022-08-19T04:22:02;120.10;;;3.37;;
8411;SDS011;4243;49.296;11.348;2022-08-19T04:24:30;120.83;;;3.40;;
8411;SDS011;4243;49.296;11.348;2022-08-19T04:26:59;120.53;;;3.90;;
8411;SDS011;4243;49.296;11.348;2022-08-19T04:29:28;120.57;;;3.60;;
8411;SDS011;4243;49.296;11.348;2022-08-19T04:31:56;120.10;;;3.90;;
8411;SDS011;4243;49.296;11.348;2022-08-19T04:34:25;120.87;;;3.77;;
8411;SDS011;4243;49.296;11.348;2022-08-19T04:36:56;120.57;;;3.57;;
8411;SDS011;4243;49.296;11.348;2022-08-19T04:39:26;121.00;;;3.47;;
8411;SDS011;4243;49.296;11.348;2022-08-19T04:42:16;121.07;;;3.90;;
8411;SDS011;4243;49.296;11.348;2022-08-19T04:45:04;120.67;;;3.90;;
8411;SDS011;4243;49.296;11.348;2022-08-19T04:47:38;120.80;;;3.63;;
8411;SDS011;4243;49.296;11.348;2022-08-19T04:50:23;121.30;;;3.90;;
8411;SDS011;4243;49.296;11.348;2022-08-19T04:52:53;120.97;;;4.30;;
8411;SDS011;4243;49.296;11.348;2022-08-19T04:55:21;121.47;;;4.63;;
8411;SDS011;4243;49.296;11.348;2022-08-19T04:57:53;120.50;;;4.10;;
8411;SDS011;4243;49.296;11.348;2022-08-19T05:00:21;120.23;;;4.30;;
8411;SDS011;4243;49.296;11.348;2022-08-19T05:02:49;120.87;;;4.27;;
8411;SDS011;4243;49.296;11.348;2022-08-19T05:05:17;120.27;;;3.93;;
8411;SDS011;4243;49.296;11.348;2022-08-19T05:07:45;120.27;;;3.93;;
8411;SDS011;4243;49.296;11.348;2022-08-19T05:10:13;120.80;;;4.17;;
8411;SDS011;4243;49.296;11.348;2022-08-19T05:12:41;120.87;;;4.13;;
8411;SDS011;4243;49.296;11.348;2022-08-19T05:15:08;119.80;;;4.07;;
8411;SDS011;4243;49.296;11.348;2022-08-19T05:17:36;120.27;;;4.03;;
8411;SDS011;4243;49.296;11.348;2022-08-19T05:20:06;121.17;;;4.23;;
8411;SDS011;4243;49.296;11.348;2022-08-19T05:22:54;120.60;;;4.00;;
8411;SDS011;4243;49.296;11.348;2022-08-19T05:25:22;120.90;;;4.13;;
8411;SDS011;4243;49.296;11.348;2022-08-19T05:27:51;120.77;;;4.83;;
8411;SDS011;4243;49.296;11.348;2022-08-19T05:30:18;120.50;;;4.37;;
8411;SDS011;4243;49.296;11.348;2022-08-19T05:33:06;120.90;;;4.20;;
8411;SDS011;4243;49.296;11.348;2022-08-19T05:35:38;120.57;;;4.67;;
8411;SDS011;4243;49.296;11.348;2022-08-19T05:38:07;121.07;;;4.97;;
8411;SDS011;4243;49.296;11.348;2022-08-19T05:40:35;119.87;;;4.87;;
8411;SDS011;4243;49.296;11.348;2022-08-19T05:43:04;120.60;;;4.73;;
8411;SDS011;4243;49.296;11.348;2022-08-19T05:45:37;120.47;;;5.30;;
8411;SDS011;4243;49.296;11.348;2022-08-19T05:48:09;120.67;;;5.47;;
8411;SDS011;4243;49.296;11.348;2022-08-19T05:50:38;120.60;;;5.90;;
8411;SDS011;4243;49.296;11.348;2022-08-19T05:53:07;120.50;;;5.40;;
8411;SDS011;4243;49.296;11.348;2022-08-19T05:55:35;121.97;;;6.07;;
8411;SDS011;4243;49.296;11.348;2022-08-19T05:58:04;120.07;;;5.87;;
8411;SDS011;4243;49.296;11.348;2022-08-19T06:00:34;120.47;;;5.40;;
8411;SDS011;4243;49.296;11.348;2022-08-19T06:03:02;121.43;;;5.50;;
8411;SDS011;4243;49.296;11.348;2022-08-19T06:05:38;120.93;;;5.40;;
8411;SDS011;4243;49.296;11.348;2022-08-19T06:08:17;120.07;;;5.40;;
8411;SDS011;4243;49.296;11.348;2022-08-19T06:10:59;121.00;;;5.67;;
8411;SDS011;4243;49.296;11.348;2022-08-19T06:13:41;120.47;;;5.30;;
8411;SDS011;4243;49.296;11.348;2022-08-19T06:16:10;121.00;;;5.70;;
8411;SDS011;4243;49.296;11.348;2022-08-19T06:18:37;121.90;;;6.50;;
8411;SDS011;4243;49.296;11.348;2022-08-19T06:21:04;121.00;;;5.73;;
8411;SDS011;4243;49.296;11.348;2022-08-19T06:23:32;121.10;;;5.53;;
8411;SDS011;4243;49.296;11.348;2022-08-19T06:26:00;120.80;;;6.23;;
8411;SDS011;4243;49.296;11.348;2022-08-19T06:28:27;121.47;;;5.77;;
8411;SDS011;4243;49.296;11.348;2022-08-19T06:30:54;120.93;;;6.40;;
8411;SDS011;4243;49.296;11.348;2022-08-19T06:33:21;121.47;;;6.80;;
8411;SDS011;4243;49.296;11.348;2022-08-19T06:35:49;121.73;;;6.20;;
8411;SDS011;4243;49.296;11.348;2022-08-19T06:38:16;122.43;;;7.50;;
8411;SDS011;4243;49.296;11.348;2022-08-19T06:40:44;121.83;;;7.67;;
8411;SDS011;4243;49.296;11.348;2022-08-19T06:43:11;122.03;;;7.57;;
8411;SDS011;4243;49.296;11.348;2022-08-19T06:45:43;120.87;;;7.80;;
8411;SDS011;4243;49.296;11.348;2022-08-19T06:48:13;121.17;;;8.50;;
8411;SDS011;4243;49.296;11.348;2022-08-19T06:50:40;119.67;;;7.77;;
8411;SDS011;4243;49.296;11.348;2022-08-19T06:53:07;122.93;;;9.70;;
8411;SDS011;4243;49.296;11.348;2022-08-19T06:55:35;121.10;;;8.70;;
8411;SDS011;4243;49.296;11.348;2022-08-19T06:58:04;122.57;;;8.73;;
8411;SDS011;4243;49.296;11.348;2022-08-19T07:00:32;120.60;;;9.70;;
8411;SDS011;4243;49.296;11.348;2022-08-19T07:02:59;122.57;;;11.30;;
8411;SDS011;4243;49.296;11.348;2022-08-19T07:05:37;122.20;;;10.00;;
8411;SDS011;4243;49.296;11.348;2022-08-19T07:08:12;122.03;;;8.63;;
8411;SDS011;4243;49.296;11.348;2022-08-19T07:10:42;121.37;;;8.40;;
8411;SDS011;4243;49.296;11.348;2022-08-19T07:13:11;120.43;;;7.63;;
8411;SDS011;4243;49.296;11.348;2022-08-19T07:15:38;120.70;;;7.00;;
8411;SDS011;4243;49.296;11.348;2022-08-19T07:18:05;120.20;;;5.93;;
8411;SDS011;4243;49.296;11.348;2022-08-19T07:20:37;118.87;;;5.10;;
8411;SDS011;4243;49.296;11.348;2022-08-19T07:23:07;119.07;;;4.43;;
8411;SDS011;4243;49.296;11.348;2022-08-19T07:25:41;118.17;;;3.73;;
8411;SDS011;4243;49.296;11.348;2022-08-19T07:28:09;118.00;;;3.30;;
8411;SDS011;4243;49.296;11.348;2022-08-19T07:30:49;117.60;;;3.40;;
8411;SDS011;4243;49.296;11.348;2022-08-19T07:33:18;118.47;;;3.37;;
8411;SDS011;4243;49.296;11.348;2022-08-19T07:35:45;118.40;;;3.80;;
8411;SDS011;4243;49.296;11.348;2022-08-19T07:38:13;118.57;;;3.40;;
8411;SDS011;4243;49.296;11.348;2022-08-19T07:40:43;117.10;;;3.27;;
8411;SDS011;4243;49.296;11.348;2022-08-19T07:43:12;117.47;;;3.13;;
8411;SDS011;4243;49.296;11.348;2022-08-19T07:45:43;118.37;;;4.10;;
8411;SDS011;4243;49.296;11.348;2022-08-19T07:48:11;119.43;;;4.70;;
8411;SDS011;4243;49.296;11.348;2022-08-19T07:50:38;119.37;;;5.57;;
8411;SDS011;4243;49.296;11.348;2022-08-19T07:53:06;118.97;;;5.43;;
8411;SDS011;4243;49.296;11.348;2022-08-19T07:55:33;118.10;;;6.90;;
8411;SDS011;4243;49.296;11.348;2022-08-19T07:58:09;118.67;;;5.97;;
8411;SDS011;4243;49.296;11.348;2022-08-19T08:03:51;120.20;;;5.97;;
8411;SDS011;4243;49.296;11.348;2022-08-19T08:06:39;119.70;;;5.50;;
8411;SDS011;4243;49.296;11.348;2022-08-19T08:09:31;119.40;;;5.43;;
8411;SDS011;4243;49.296;11.348;2022-08-19T08:12:06;120.57;;;5.00;;
8411;SDS011;4243;49.296;11.348;2022-08-19T08:15:00;119.10;;;4.57;;
8411;SDS011;4243;49.296;11.348;2022-08-19T08:17:37;119.17;;;4.00;;
8411;SDS011;4243;49.296;11.348;2022-08-19T08:20:15;118.40;;;3.17;;
8411;SDS011;4243;49.296;11.348;2022-08-19T08:22:44;118.80;;;3.60;;
8411;SDS011;4243;49.296;11.348;2022-08-19T08:25:32;119.40;;;3.53;;
8411;SDS011;4243;49.296;11.348;2022-08-19T08:28:02;118.73;;;3.80;;
8411;SDS011;4243;49.296;11.348;2022-08-19T08:30:30;119.17;;;3.80;;
8411;SDS011;4243;49.296;11.348;2022-08-19T08:33:03;118.37;;;4.13;;
8411;SDS011;4243;49.296;11.348;2022-08-19T08:35:30;119.60;;;3.83;;
8411;SDS011;4243;49.296;11.348;2022-08-19T08:37:58;118.37;;;4.00;;
8411;SDS011;4243;49.296;11.348;2022-08-19T08:43:27;118.77;;;3.87;;
8411;SDS011;4243;49.296;11.348;2022-08-19T08:54:37;117.37;;;3.90;;
8411;SDS011;4243;49.296;11.348;2022-08-19T08:57:44;118.80;;;4.10;;
8411;SDS011;4243;49.296;11.348;2022-08-19T09:00:19;119.00;;;3.60;;
8411;SDS011;4243;49.296;11.348;2022-08-19T09:02:56;119.57;;;3.90;;
8411;SDS011;4243;49.296;11.348;2022-08-19T09:05:30;119.40;;;3.70;;
8411;SDS011;4243;49.296;11.348;2022-08-19T09:17:19;119.83;;;4.10;;
8411;SDS011;4243;49.296;11.348;2022-08-19T09:19:54;118.87;;;4.50;;
8411;SDS011;4243;49.296;11.348;2022-08-19T09:22:35;119.70;;;5.17;;
8411;SDS011;4243;49.296;11.348;2022-08-19T09:25:04;119.63;;;4.40;;
8411;SDS011;4243;49.296;11.348;2022-08-19T09:27:36;119.43;;;5.17;;
8411;SDS011;4243;49.296;11.348;2022-08-19T09:30:42;117.17;;;4.67;;
8411;SDS011;4243;49.296;11.348;2022-08-19T09:33:07;119.43;;;4.80;;
8411;SDS011;4243;49.296;11.348;2022-08-19T09:35:34;119.77;;;5.50;;
8411;SDS011;4243;49.296;11.348;2022-08-19T09:38:19;118.90;;;5.67;;
8411;SDS011;4243;49.296;11.348;2022-08-19T09:40:47;119.43;;;4.90;;
8411;SDS011;4243;49.296;11.348;2022-08-19T09:43:16;117.17;;;4.33;;
8411;SDS011;4243;49.296;11.348;2022-08-19T09:45:58;119.10;;;4.57;;
8411;SDS011;4243;49.296;11.348;2022-08-19T09:48:27;118.97;;;4.47;;
8411;SDS011;4243;49.296;11.348;2022-08-19T09:51:01;117.83;;;4.30;;
8411;SDS011;4243;49.296;11.348;2022-08-19T09:53:31;117.97;;;4.20;;
8411;SDS011;4243;49.296;11.348;2022-08-19T09:55:59;118.60;;;4.07;;
8411;SDS011;4243;49.296;11.348;2022-08-19T09:58:29;119.10;;;4.53;;
8411;SDS011;4243;49.296;11.348;2022-08-19T10:00:58;119.37;;;4.60;;
8411;SDS011;4243;49.296;11.348;2022-08-19T10:03:29;119.07;;;4.50;;
8411;SDS011;4243;49.296;11.348;2022-08-19T10:05:59;118.37;;;5.00;;
8411;SDS011;4243;49.296;11.348;2022-08-19T10:08:40;119.27;;;4.63;;
8411;SDS011;4243;49.296;11.348;2022-08-19T10:11:15;118.80;;;4.87;;
8411;SDS011;4243;49.296;11.348;2022-08-19T10:14:00;120.30;;;5.47;;
8411;SDS011;4243;49.296;11.348;2022-08-19T10:16:28;120.17;;;5.70;;
8411;SDS011;4243;49.296;11.348;2022-08-19T10:18:56;121.67;;;6.90;;
8411;SDS011;4243;49.296;11.348;2022-08-19T10:21:26;120.57;;;6.00;;
8411;SDS011;4243;49.296;11.348;2022-08-19T10:24:00;120.50;;;5.40;;
8411;SDS011;4243;49.296;11.348;2022-08-19T10:26:34;119.77;;;4.40;;
8411;SDS011;4243;49.296;11.348;2022-08-19T10:29:07;119.50;;;4.73;;
8411;SDS011;4243;49.296;11.348;2022-08-19T10:31:36;120.20;;;5.30;;
8411;SDS011;4243;49.296;11.348;2022-08-19T10:34:24;117.70;;;5.00;;
8411;SDS011;4243;49.296;11.348;2022-08-19T10:36:54;120.10;;;4.93;;
8411;SDS011;4243;49.296;11.348;2022-08-19T10:39:27;118.87;;;5.17;;
8411;SDS011;4243;49.296;11.348;2022-08-19T10:42:08;119.97;;;4.47;;
8411;SDS011;4243;49.296;11.348;2022-08-19T10:44:37;118.40;;;4.27;;
8411;SDS011;4243;49.296;11.348;2022-08-19T10:47:05;118.07;;;4.33;;
8411;SDS011;4243;49.296;11.348;2022-08-19T10:49:50;118.07;;;3.67;;
8411;SDS011;4243;49.296;11.348;2022-08-19T10:52:38;120.47;;;3.90;;
8411;SDS011;4243;49.296;11.348;2022-08-19T10:55:20;120.47;;;4.00;;
8411;SDS011;4243;49.296;11.348;2022-08-19T10:58:14;119.27;;;4.20;;
8411;SDS011;4243;49.296;11.348;2022-08-19T11:00:53;119.80;;;3.97;;
8411;SDS011;4243;49.296;11.348;2022-08-19T11:03:24;118.23;;;3.77;;
8411;SDS011;4243;49.296;11.348;2022-08-19T11:05:58;120.57;;;3.87;;
8411;SDS011;4243;49.296;11.348;2022-08-19T11:08:33;118.43;;;3.63;;
8411;SDS011;4243;49.296;11.348;2022-08-19T11:11:03;119.50;;;3.97;;
8411;SDS011;4243;49.296;11.348;2022-08-19T11:13:34;117.57;;;3.93;;
8411;SDS011;4243;49.296;11.348;2022-08-19T11:16:06;119.27;;;3.90;;
8411;SDS011;4243;49.296;11.348;2022-08-19T11:18:44;119.83;;;3.90;;
8411;SDS011;4243;49.296;11.348;2022-08-19T11:23:52;118.17;;;4.00;;
8411;SDS011;4243;49.296;11.348;2022-08-19T11:26:23;118.43;;;4.13;;
8411;SDS011;4243;49.296;11.348;2022-08-19T11:28:51;119.40;;;4.17;;
8411;SDS011;4243;49.296;11.348;2022-08-19T11:31:21;119.57;;;4.70;;
8411;SDS011;4243;49.296;11.348;2022-08-19T11:33:57;117.17;;;3.70;;
8411;SDS011;4243;49.296;11.348;2022-08-19T11:36:29;118.30;;;3.40;;
8411;SDS011;4243;49.296;11.348;2022-08-19T11:38:58;117.93;;;3.90;;
8411;SDS011;4243;49.296;11.348;2022-08-19T11:41:27;118.30;;;3.50;;
8411;SDS011;4243;49.296;11.348;2022-08-19T11:43:54;118.47;;;3.77;;
8411;SDS011;4243;49.296;11.348;2022-08-19T11:46:23;119.07;;;3.83;;
8411;SDS011;4243;49.296;11.348;2022-08-19T11:48:59;117.27;;;3.70;;
8411;SDS011;4243;49.296;11.348;2022-08-19T11:51:27;118.37;;;4.17;;
8411;SDS011;4243;49.296;11.348;2022-08-19T11:53:57;118.87;;;5.60;;
8411;SDS011;4243;49.296;11.348;2022-08-19T11:56:27;118.40;;;5.30;;
8411;SDS011;4243;49.296;11.348;2022-08-19T11:58:55;119.00;;;5.77;;
8411;SDS011;4243;49.296;11.348;2022-08-19T12:01:23;118.70;;;5.37;;
8411;SDS011;4243;49.296;11.348;2022-08-19T12:03:53;119.10;;;5.37;;
8411;SDS011;4243;49.296;11.348;2022-08-19T12:06:26;118.47;;;5.20;;
8411;SDS011;4243;49.296;11.348;2022-08-19T12:08:58;117.47;;;4.80;;
8411;SDS011;4243;49.296;11.348;2022-08-19T12:11:30;117.47;;;4.23;;
8411;SDS011;4243;49.296;11.348;2022-08-19T12:14:00;118.77;;;5.30;;
8411;SDS011;4243;49.296;11.348;2022-08-19T12:16:28;118.10;;;4.80;;
8411;SDS011;4243;49.296;11.348;2022-08-19T12:18:58;116.27;;;4.67;;
8411;SDS011;4243;49.296;11.348;2022-08-19T12:21:31;118.33;;;4.70;;
8411;SDS011;4243;49.296;11.348;2022-08-19T12:24:02;117.87;;;4.20;;
8411;SDS011;4243;49.296;11.348;2022-08-19T12:26:32;118.47;;;4.27;;
8411;SDS011;4243;49.296;11.348;2022-08-19T12:29:18;117.80;;;4.00;;
8411;SDS011;4243;49.296;11.348;2022-08-19T12:31:49;117.57;;;4.00;;
8411;SDS011;4243;49.296;11.348;2022-08-19T12:34:17;116.73;;;4.40;;
8411;SDS011;4243;49.296;11.348;2022-08-19T12:36:46;117.20;;;4.83;;
8411;SDS011;4243;49.296;11.348;2022-08-19T12:39:15;117.27;;;4.67;;
8411;SDS011;4243;49.296;11.348;2022-08-19T12:41:42;118.40;;;4.60;;
8411;SDS011;4243;49.296;11.348;2022-08-19T12:44:20;117.37;;;5.17;;
8411;SDS011;4243;49.296;11.348;2022-08-19T12:46:55;117.00;;;4.80;;
8411;SDS011;4243;49.296;11.348;2022-08-19T12:49:23;118.30;;;4.80;;
8411;SDS011;4243;49.296;11.348;2022-08-19T12:52:11;119.53;;;5.03;;
8411;SDS011;4243;49.296;11.348;2022-08-19T12:54:48;118.30;;;4.00;;
8411;SDS011;4243;49.296;11.348;2022-08-19T12:57:20;118.50;;;3.57;;
8411;SDS011;4243;49.296;11.348;2022-08-19T13:00:03;117.53;;;4.00;;
8411;SDS011;4243;49.296;11.348;2022-08-19T13:02:40;119.30;;;4.50;;
8411;SDS011;4243;49.296;11.348;2022-08-19T13:05:12;119.37;;;4.37;;
8411;SDS011;4243;49.296;11.348;2022-08-19T13:07:42;119.90;;;4.77;;
8411;SDS011;4243;49.296;11.348;2022-08-19T13:10:12;120.27;;;5.23;;
8411;SDS011;4243;49.296;11.348;2022-08-19T13:12:48;119.80;;;4.77;;
8411;SDS011;4243;49.296;11.348;2022-08-19T13:15:19;120.00;;;5.03;;
8411;SDS011;4243;49.296;11.348;2022-08-19T13:17:50;118.80;;;4.70;;
8411;SDS011;4243;49.296;11.348;2022-08-19T13:20:20;118.90;;;4.70;;
8411;SDS011;4243;49.296;11.348;2022-08-19T13:22:51;119.07;;;4.80;;
8411;SDS011;4243;49.296;11.348;2022-08-19T13:25:19;119.03;;;4.20;;
8411;SDS011;4243;49.296;11.348;2022-08-19T13:27:47;119.67;;;4.40;;
8411;SDS011;4243;49.296;11.348;2022-08-19T13:30:17;119.17;;;4.27;;
8411;SDS011;4243;49.296;11.348;2022-08-19T13:33:05;116.67;;;4.10;;
8411;SDS011;4243;49.296;11.348;2022-08-19T13:35:44;119.07;;;3.70;;
8411;SDS011;4243;49.296;11.348;2022-08-19T13:38:23;117.67;;;4.07;;
8411;SDS011;4243;49.296;11.348;2022-08-19T13:40:51;117.37;;;3.77;;
8411;SDS011;4243;49.296;11.348;2022-08-19T13:43:22;117.50;;;3.30;;
8411;SDS011;4243;49.296;11.348;2022-08-19T13:45:53;118.27;;;3.33;;
8411;SDS011;4243;49.296;11.348;2022-08-19T13:48:22;117.40;;;3.50;;
8411;SDS011;4243;49.296;11.348;2022-08-19T13:50:53;117.97;;;3.57;;
8411;SDS011;4243;49.296;11.348;2022-08-19T13:53:21;118.10;;;3.63;;
8411;SDS011;4243;49.296;11.348;2022-08-19T13:55:48;118.20;;;3.90;;
8411;SDS011;4243;49.296;11.348;2022-08-19T13:58:17;118.87;;;3.83;;
8411;SDS011;4243;49.296;11.348;2022-08-19T14:00:45;117.53;;;3.57;;
8411;SDS011;4243;49.296;11.348;2022-08-19T14:03:12;118.47;;;3.67;;
8411;SDS011;4243;49.296;11.348;2022-08-19T14:05:40;118.30;;;3.70;;
8411;SDS011;4243;49.296;11.348;2022-08-19T14:08:07;117.40;;;3.67;;
8411;SDS011;4243;49.296;11.348;2022-08-19T14:10:35;117.83;;;3.73;;
8411;SDS011;4243;49.296;11.348;2022-08-19T14:13:02;117.77;;;3.73;;
8411;SDS011;4243;49.296;11.348;2022-08-19T14:15:31;118.43;;;3.60;;
8411;SDS011;4243;49.296;11.348;2022-08-19T14:18:02;118.80;;;3.33;;
8411;SDS011;4243;49.296;11.348;2022-08-19T14:20:36;118.67;;;3.50;;
8411;SDS011;4243;49.296;11.348;2022-08-19T14:23:07;117.97;;;3.80;;
8411;SDS011;4243;49.296;11.348;2022-08-19T14:25:42;119.57;;;5.77;;
8411;SDS011;4243;49.296;11.348;2022-08-19T14:28:15;120.77;;;6.43;;
8411;SDS011;4243;49.296;11.348;2022-08-19T14:30:52;120.90;;;5.90;;
8411;SDS011;4243;49.296;11.348;2022-08-19T14:33:25;118.67;;;5.10;;
8411;SDS011;4243;49.296;11.348;2022-08-19T14:35:57;121.57;;;5.80;;
8411;SDS011;4243;49.296;11.348;2022-08-19T14:38:29;121.10;;;5.80;;
8411;SDS011;4243;49.296;11.348;2022-08-19T14:41:12;121.00;;;4.97;;
8411;SDS011;4243;49.296;11.348;2022-08-19T14:43:52;120.03;;;4.90;;
8411;SDS011;4243;49.296;11.348;2022-08-19T14:46:25;120.00;;;5.23;;
8411;SDS011;4243;49.296;11.348;2022-08-19T14:48:59;120.83;;;4.93;;
8411;SDS011;4243;49.296;11.348;2022-08-19T14:51:36;121.47;;;5.27;;
8411;SDS011;4243;49.296;11.348;2022-08-19T14:54:08;121.00;;;4.43;;
8411;SDS011;4243;49.296;11.348;2022-08-19T14:56:40;119.83;;;3.50;;
8411;SDS011;4243;49.296;11.348;2022-08-19T14:59:12;120.40;;;3.57;;
8411;SDS011;4243;49.296;11.348;2022-08-19T15:01:44;119.57;;;3.67;;
8411;SDS011;4243;49.296;11.348;2022-08-19T15:04:16;120.53;;;3.80;;
8411;SDS011;4243;49.296;11.348;2022-08-19T15:06:47;120.50;;;3.40;;
8411;SDS011;4243;49.296;11.348;2022-08-19T15:09:19;120.87;;;3.47;;
8411;SDS011;4243;49.296;11.348;2022-08-19T15:11:51;120.60;;;3.53;;
8411;SDS011;4243;49.296;11.348;2022-08-19T15:14:24;120.87;;;3.77;;
8411;SDS011;4243;49.296;11.348;2022-08-19T15:16:56;120.50;;;3.63;;
8411;SDS011;4243;49.296;11.348;2022-08-19T15:19:31;120.20;;;3.40;;
8411;SDS011;4243;49.296;11.348;2022-08-19T15:22:04;120.40;;;3.40;;
8411;SDS011;4243;49.296;11.348;2022-08-19T15:24:36;120.30;;;3.50;;
8411;SDS011;4243;49.296;11.348;2022-08-19T15:27:14;120.20;;;3.43;;
8411;SDS011;4243;49.296;11.348;2022-08-19T15:29:46;120.07;;;3.30;;